sensor_id;sensor_type;location;lat;lon;timestamp;P1;durP1;ratioP1;P2;durP2;ratioP2
9489;SDS011;4783;42.734;23.288;2023-04-06T06:50:11;24.97;;;18.47;;
9489;SDS011;4783;42.734;23.288;2023-04-06T06:57:29;22.97;;;17.57;;
9489;SDS011;4783;42.734;23.288;2023-04-06T07:19:36;22.17;;;17.30;;
9489;SDS011;4783;42.734;23.288;2023-04-06T07:44:58;21.13;;;17.80;;
9489;SDS011;4783;42.734;23.288;2023-04-06T07:50:34;29.20;;;22.63;;
9489;SDS011;4783;42.734;23.288;2023-04-06T07:55:52;21.93;;;17.13;;
9489;SDS011;4783;42.734;23.288;2023-04-06T08:01:04;20.23;;;15.73;;
9489;SDS011;4783;42.734;23.288;2023-04-06T08:03:30;21.90;;;16.80;;
9489;SDS011;4783;42.734;23.288;2023-04-06T08:08:38;19.77;;;15.23;;
9489;SDS011;4783;42.734;23.288;2023-04-06T08:11:03;19.47;;;16.10;;
9489;SDS011;4783;42.734;23.288;2023-04-06T08:15:59;19.03;;;16.73;;
9489;SDS011;4783;42.734;23.288;2023-04-06T08:21:15;20.93;;;17.07;;
9489;SDS011;4783;42.734;23.288;2023-04-06T08:23:40;19.43;;;16.20;;
9489;SDS011;4783;42.734;23.288;2023-04-06T08:33:38;21.87;;;16.57;;
9489;SDS011;4783;42.734;23.288;2023-04-06T08:36:10;19.03;;;15.77;;
9489;SDS011;4783;42.734;23.288;2023-04-06T08:38:36;21.83;;;15.57;;
9489;SDS011;4783;42.734;23.288;2023-04-06T08:41:11;20.93;;;16.53;;
9489;SDS011;4783;42.734;23.288;2023-04-06T08:43:41;23.70;;;14.67;;
9489;SDS011;4783;42.734;23.288;2023-04-06T08:46:07;18.20;;;14.73;;
9489;SDS011;4783;42.734;23.288;2023-04-06T08:48:33;20.83;;;15.33;;
9489;SDS011;4783;42.734;23.288;2023-04-06T08:50:59;17.70;;;15.13;;
9489;SDS011;4783;42.734;23.288;2023-04-06T08:53:25;15.67;;;13.93;;
9489;SDS011;4783;42.734;23.288;2023-04-06T08:55:50;18.30;;;15.10;;
9489;SDS011;4783;42.734;23.288;2023-04-06T08:58:16;19.37;;;15.20;;
9489;SDS011;4783;42.734;23.288;2023-04-06T09:00:41;21.43;;;15.83;;
9489;SDS011;4783;42.734;23.288;2023-04-06T09:03:07;16.87;;;14.60;;
9489;SDS011;4783;42.734;23.288;2023-04-06T09:05:33;19.63;;;16.30;;
9489;SDS011;4783;42.734;23.288;2023-04-06T09:07:58;22.00;;;15.80;;
9489;SDS011;4783;42.734;23.288;2023-04-06T09:10:24;16.33;;;14.27;;
9489;SDS011;4783;42.734;23.288;2023-04-06T09:12:50;19.27;;;16.00;;
9489;SDS011;4783;42.734;23.288;2023-04-06T09:15:19;17.40;;;14.87;;
9489;SDS011;4783;42.734;23.288;2023-04-06T09:17:45;20.77;;;15.57;;
9489;SDS011;4783;42.734;23.288;2023-04-06T09:20:11;18.30;;;15.00;;
9489;SDS011;4783;42.734;23.288;2023-04-06T09:22:37;17.90;;;14.77;;
9489;SDS011;4783;42.734;23.288;2023-04-06T09:25:02;22.37;;;15.80;;
9489;SDS011;4783;42.734;23.288;2023-04-06T09:27:34;19.00;;;15.83;;
9489;SDS011;4783;42.734;23.288;2023-04-06T09:30:04;19.90;;;15.30;;
9489;SDS011;4783;42.734;23.288;2023-04-06T09:32:30;17.80;;;13.90;;
9489;SDS011;4783;42.734;23.288;2023-04-06T09:35:05;16.77;;;13.87;;
9489;SDS011;4783;42.734;23.288;2023-04-06T09:37:30;16.73;;;14.40;;
9489;SDS011;4783;42.734;23.288;2023-04-06T09:40:02;18.03;;;14.03;;
9489;SDS011;4783;42.734;23.288;2023-04-06T09:42:27;17.73;;;14.37;;
9489;SDS011;4783;42.734;23.288;2023-04-06T09:44:52;18.37;;;14.07;;
9489;SDS011;4783;42.734;23.288;2023-04-06T09:47:18;16.70;;;13.67;;
9489;SDS011;4783;42.734;23.288;2023-04-06T09:49:44;17.50;;;13.83;;
9489;SDS011;4783;42.734;23.288;2023-04-06T09:52:10;15.77;;;13.57;;
9489;SDS011;4783;42.734;23.288;2023-04-06T09:54:36;16.23;;;13.77;;
9489;SDS011;4783;42.734;23.288;2023-04-06T09:57:15;16.73;;;13.00;;
9489;SDS011;4783;42.734;23.288;2023-04-06T10:05:19;15.53;;;13.50;;
9489;SDS011;4783;42.734;23.288;2023-04-06T10:07:41;12.80;;;11.47;;
9489;SDS011;4783;42.734;23.288;2023-04-06T10:10:07;15.83;;;13.63;;
9489;SDS011;4783;42.734;23.288;2023-04-06T10:12:33;15.03;;;12.80;;
9489;SDS011;4783;42.734;23.288;2023-04-06T10:14:58;15.83;;;13.47;;
9489;SDS011;4783;42.734;23.288;2023-04-06T10:17:23;17.97;;;13.37;;
9489;SDS011;4783;42.734;23.288;2023-04-06T10:19:54;15.83;;;13.57;;
9489;SDS011;4783;42.734;23.288;2023-04-06T10:22:32;21.33;;;13.13;;
9489;SDS011;4783;42.734;23.288;2023-04-06T10:24:57;17.47;;;12.97;;
9489;SDS011;4783;42.734;23.288;2023-04-06T10:27:29;13.33;;;11.93;;
9489;SDS011;4783;42.734;23.288;2023-04-06T10:30:00;14.20;;;11.77;;
9489;SDS011;4783;42.734;23.288;2023-04-06T10:32:35;15.53;;;11.73;;
9489;SDS011;4783;42.734;23.288;2023-04-06T10:35:07;17.27;;;13.90;;
9489;SDS011;4783;42.734;23.288;2023-04-06T10:37:45;14.87;;;12.23;;
9489;SDS011;4783;42.734;23.288;2023-04-06T10:40:44;15.67;;;13.43;;
9489;SDS011;4783;42.734;23.288;2023-04-06T10:43:07;15.57;;;12.30;;
9489;SDS011;4783;42.734;23.288;2023-04-06T10:45:33;24.87;;;12.87;;
9489;SDS011;4783;42.734;23.288;2023-04-06T10:47:58;16.43;;;12.53;;
9489;SDS011;4783;42.734;23.288;2023-04-06T10:50:24;13.33;;;11.47;;
9489;SDS011;4783;42.734;23.288;2023-04-06T10:52:59;14.73;;;12.07;;
9489;SDS011;4783;42.734;23.288;2023-04-06T10:55:26;17.67;;;12.53;;
9489;SDS011;4783;42.734;23.288;2023-04-06T10:57:51;12.93;;;11.60;;
9489;SDS011;4783;42.734;23.288;2023-04-06T11:00:17;14.20;;;11.30;;
9489;SDS011;4783;42.734;23.288;2023-04-06T11:02:51;16.43;;;13.83;;
9489;SDS011;4783;42.734;23.288;2023-04-06T11:05:17;13.90;;;11.70;;
9489;SDS011;4783;42.734;23.288;2023-04-06T11:07:42;14.27;;;11.97;;
9489;SDS011;4783;42.734;23.288;2023-04-06T11:10:09;13.60;;;11.80;;
9489;SDS011;4783;42.734;23.288;2023-04-06T11:12:34;14.93;;;12.50;;
9489;SDS011;4783;42.734;23.288;2023-04-06T11:15:00;14.20;;;12.03;;
9489;SDS011;4783;42.734;23.288;2023-04-06T11:17:33;13.73;;;12.10;;
9489;SDS011;4783;42.734;23.288;2023-04-06T11:19:58;14.17;;;12.57;;
9489;SDS011;4783;42.734;23.288;2023-04-06T11:22:24;18.87;;;12.53;;
9489;SDS011;4783;42.734;23.288;2023-04-06T11:24:50;17.50;;;11.57;;
9489;SDS011;4783;42.734;23.288;2023-04-06T11:27:15;15.73;;;12.90;;
9489;SDS011;4783;42.734;23.288;2023-04-06T11:29:41;15.67;;;12.70;;
9489;SDS011;4783;42.734;23.288;2023-04-06T11:32:07;17.27;;;12.03;;
9489;SDS011;4783;42.734;23.288;2023-04-06T11:34:37;13.60;;;12.20;;
9489;SDS011;4783;42.734;23.288;2023-04-06T11:37:06;15.10;;;12.00;;
9489;SDS011;4783;42.734;23.288;2023-04-06T11:39:31;13.37;;;11.53;;
9489;SDS011;4783;42.734;23.288;2023-04-06T11:42:01;14.13;;;11.43;;
9489;SDS011;4783;42.734;23.288;2023-04-06T11:44:36;16.07;;;11.90;;
9489;SDS011;4783;42.734;23.288;2023-04-06T11:47:04;13.03;;;11.63;;
9489;SDS011;4783;42.734;23.288;2023-04-06T11:49:30;12.97;;;11.67;;
9489;SDS011;4783;42.734;23.288;2023-04-06T11:51:56;12.53;;;11.30;;
9489;SDS011;4783;42.734;23.288;2023-04-06T11:54:35;13.13;;;11.47;;
9489;SDS011;4783;42.734;23.288;2023-04-06T11:57:03;14.93;;;11.63;;
9489;SDS011;4783;42.734;23.288;2023-04-06T11:59:29;15.40;;;11.70;;
9489;SDS011;4783;42.734;23.288;2023-04-06T12:01:55;12.93;;;10.82;;
9489;SDS011;4783;42.734;23.288;2023-04-06T12:04:20;12.83;;;11.20;;
9489;SDS011;4783;42.734;23.288;2023-04-06T12:06:46;14.10;;;10.60;;
9489;SDS011;4783;42.734;23.288;2023-04-06T12:09:13;14.30;;;11.60;;
9489;SDS011;4783;42.734;23.288;2023-04-06T12:11:38;12.43;;;10.70;;
9489;SDS011;4783;42.734;23.288;2023-04-06T12:14:05;12.70;;;10.50;;
9489;SDS011;4783;42.734;23.288;2023-04-06T12:16:32;13.70;;;11.03;;
9489;SDS011;4783;42.734;23.288;2023-04-06T12:18:57;13.53;;;10.30;;
9489;SDS011;4783;42.734;23.288;2023-04-06T12:21:22;12.73;;;11.03;;
9489;SDS011;4783;42.734;23.288;2023-04-06T12:23:48;11.87;;;10.67;;
9489;SDS011;4783;42.734;23.288;2023-04-06T12:26:13;13.37;;;10.00;;
9489;SDS011;4783;42.734;23.288;2023-04-06T12:28:38;12.37;;;11.03;;
9489;SDS011;4783;42.734;23.288;2023-04-06T12:31:04;13.77;;;10.93;;
9489;SDS011;4783;42.734;23.288;2023-04-06T12:33:29;18.77;;;11.47;;
9489;SDS011;4783;42.734;23.288;2023-04-06T12:35:54;13.40;;;11.60;;
9489;SDS011;4783;42.734;23.288;2023-04-06T12:38:20;12.37;;;11.17;;
9489;SDS011;4783;42.734;23.288;2023-04-06T12:40:45;12.27;;;11.00;;
9489;SDS011;4783;42.734;23.288;2023-04-06T12:43:10;13.73;;;11.77;;
9489;SDS011;4783;42.734;23.288;2023-04-06T12:45:37;13.20;;;11.80;;
9489;SDS011;4783;42.734;23.288;2023-04-06T12:48:03;13.17;;;11.77;;
9489;SDS011;4783;42.734;23.288;2023-04-06T12:50:28;18.40;;;12.03;;
9489;SDS011;4783;42.734;23.288;2023-04-06T12:52:53;13.87;;;12.27;;
9489;SDS011;4783;42.734;23.288;2023-04-06T12:55:19;12.73;;;11.43;;
9489;SDS011;4783;42.734;23.288;2023-04-06T12:57:45;12.93;;;11.43;;
9489;SDS011;4783;42.734;23.288;2023-04-06T13:00:11;13.43;;;12.03;;
9489;SDS011;4783;42.734;23.288;2023-04-06T13:02:37;12.57;;;11.37;;
9489;SDS011;4783;42.734;23.288;2023-04-06T13:05:02;17.90;;;11.77;;
9489;SDS011;4783;42.734;23.288;2023-04-06T13:07:27;12.60;;;10.90;;
9489;SDS011;4783;42.734;23.288;2023-04-06T13:09:52;15.17;;;11.37;;
9489;SDS011;4783;42.734;23.288;2023-04-06T13:12:18;15.23;;;12.00;;
9489;SDS011;4783;42.734;23.288;2023-04-06T13:14:44;12.97;;;11.57;;
9489;SDS011;4783;42.734;23.288;2023-04-06T13:17:11;14.60;;;12.40;;
9489;SDS011;4783;42.734;23.288;2023-04-06T13:19:36;12.60;;;11.30;;
9489;SDS011;4783;42.734;23.288;2023-04-06T13:22:02;12.57;;;11.27;;
9489;SDS011;4783;42.734;23.288;2023-04-06T13:24:27;13.77;;;11.50;;
9489;SDS011;4783;42.734;23.288;2023-04-06T13:26:53;15.63;;;12.23;;
9489;SDS011;4783;42.734;23.288;2023-04-06T13:29:18;14.40;;;11.60;;
9489;SDS011;4783;42.734;23.288;2023-04-06T13:31:43;13.60;;;11.75;;
9489;SDS011;4783;42.734;23.288;2023-04-06T13:34:08;17.27;;;12.07;;
9489;SDS011;4783;42.734;23.288;2023-04-06T13:36:34;12.80;;;10.53;;
9489;SDS011;4783;42.734;23.288;2023-04-06T13:38:59;12.97;;;10.50;;
9489;SDS011;4783;42.734;23.288;2023-04-06T13:41:25;12.20;;;10.90;;
9489;SDS011;4783;42.734;23.288;2023-04-06T13:43:51;14.93;;;10.73;;
9489;SDS011;4783;42.734;23.288;2023-04-06T13:46:16;11.43;;;10.33;;
9489;SDS011;4783;42.734;23.288;2023-04-06T13:54:48;14.67;;;11.73;;
9489;SDS011;4783;42.734;23.288;2023-04-06T13:57:13;13.30;;;10.77;;
9489;SDS011;4783;42.734;23.288;2023-04-06T14:05:10;16.30;;;12.17;;
9489;SDS011;4783;42.734;23.288;2023-04-06T14:14:12;15.20;;;12.43;;
9489;SDS011;4783;42.734;23.288;2023-04-06T14:22:33;15.57;;;13.20;;
9489;SDS011;4783;42.734;23.288;2023-04-06T14:24:58;15.07;;;13.40;;
9489;SDS011;4783;42.734;23.288;2023-04-06T14:33:38;13.73;;;12.33;;
9489;SDS011;4783;42.734;23.288;2023-04-06T14:42:26;21.33;;;14.67;;
9489;SDS011;4783;42.734;23.288;2023-04-06T14:51:11;18.40;;;14.10;;
9489;SDS011;4783;42.734;23.288;2023-04-06T15:02:08;15.33;;;13.73;;
9489;SDS011;4783;42.734;23.288;2023-04-06T15:14:19;21.17;;;15.37;;
